KSMX/SMX METAR and TAF weather

Enter ICAO airport designator
Station Type Date Time Source
KSMX METAR 2020/07/10 15:24 UTC NOAA

KSMX 101524Z 00000KT 7SM CLR 17/12 A2999 RMK AO2 T01720117


Station Type Date Time Source
KSMX Decoded METAR 2020/07/10 15:24 UTC NOAA

SANTA MARIA PUBLIC AIRPORT, CA, United States (KSMX) 34-54N 120-28W 74M
Jul 10, 2020 - 11:24 AM EDT / 2020.07.10 1524 UTC
Wind: Calm:0
Visibility: 7 mile(s):0
Sky conditions: clear
Temperature: 63.0 F (17.2 C)
Dew Point: 53.1 F (11.7 C)
Relative Humidity: 70%
Pressure (altimeter): 29.99 in. Hg (1015 hPa)
ob: KSMX 101524Z 00000KT 7SM CLR 17/12 A2999 RMK AO2 T01720117
cycle: 15

Station Type Date Time Source
KSMX TAF 2020/07/10 15:09 UTC NOAA

TAF
AMD KSMX 101506Z 1015/1112 VRB05KT 5SM BR SCT002
FM101600 VRB05KT 6SM BR SCT004
FM101700 31010KT P6SM SKC
FM110500 VRB03KT 4SM BR OVC004
FM111000 VRB03KT 1SM BR OVC002

Example: see airport list